Time;durP1;ratioP1;P1;durP2;ratioP2;P2;SDS_P1;SDS_P2;PMS_P1;PMS_P2;Temp;Humidity;BMP_temperature;BMP_pressure;BME280_temperature;BME280_humidity;BME280_pressure;Samples;Min_cycle;Max_cycle;Signal;HPM_P1;HPM_P2
2021/09/08 00:02:18;;;;;;;142.55;56.35;;;;;;;15.70;87.30;100985.25;5106733;28;20038;-70
2021/09/08 00:04:43;;;;;;;155.02;58.00;;;;;;;15.70;86.90;100979.19;5107106;28;20028;-71
2021/09/08 00:07:08;;;;;;;158.05;57.13;;;;;;;15.70;86.90;100980.03;5106768;28;20468;-71
2021/09/08 00:09:34;;;;;;;162.55;59.95;;;;;;;15.69;87.34;100980.06;5106971;28;20020;-70
2021/09/08 00:11:59;;;;;;;145.55;55.22;;;;;;;15.70;87.23;100981.81;5106480;28;20024;-70
2021/09/08 00:14:24;;;;;;;141.75;57.50;;;;;;;15.73;87.33;100984.34;5106822;28;20153;-70
2021/09/08 00:16:50;;;;;;;145.40;59.40;;;;;;;15.70;87.72;100982.66;5106873;28;20405;-69
2021/09/08 00:19:15;;;;;;;149.13;56.40;;;;;;;15.78;87.53;100984.25;5106328;28;20027;-70
2021/09/08 00:21:41;;;;;;;144.05;57.45;;;;;;;15.81;87.67;100978.97;5106374;28;20016;-71
2021/09/08 00:24:06;;;;;;;149.75;56.20;;;;;;;15.83;87.73;100966.72;5106740;28;20020;-70
2021/09/08 00:26:31;;;;;;;145.93;55.85;;;;;;;15.90;87.71;100967.41;5106549;28;20537;-70
2021/09/08 00:28:57;;;;;;;147.40;57.53;;;;;;;15.92;87.41;100965.63;5106425;28;20019;-70
2021/09/08 00:31:22;;;;;;;147.48;56.38;;;;;;;15.94;87.72;100966.47;5106389;28;20115;-70
2021/09/08 00:33:47;;;;;;;141.43;56.40;;;;;;;15.93;87.52;100954.25;5106195;28;20024;-70
2021/09/08 00:36:13;;;;;;;131.95;52.83;;;;;;;15.95;87.69;100965.56;5104906;28;20028;-70
2021/09/08 00:38:38;;;;;;;124.05;50.70;;;;;;;15.92;87.83;100963.88;5104950;28;20515;-70
2021/09/08 00:41:04;;;;;;;124.22;52.70;;;;;;;15.94;87.49;100959.44;5104850;28;20047;-70
2021/09/08 00:43:29;;;;;;;124.05;53.15;;;;;;;15.94;87.63;100953.38;5104686;28;20042;-70
2021/09/08 00:45:56;;;;;;;113.18;48.47;;;;;;;15.98;87.76;100957.66;5104870;28;20020;-70
2021/09/08 00:48:22;;;;;;;112.75;49.92;;;;;;;16.01;87.48;100947.13;5104240;28;20024;-71
2021/09/08 00:50:49;;;;;;;115.38;50.08;;;;;;;16.06;87.32;100947.03;5104233;28;20112;-70
2021/09/08 00:53:20;;;;;;;109.80;47.90;;;;;;;16.06;87.19;100947.03;5104164;28;20024;-70
2021/09/08 00:55:46;;;;;;;102.00;44.67;;;;;;;16.10;87.49;100944.28;5104253;28;20032;-70
2021/09/08 00:58:12;;;;;;;102.15;42.95;;;;;;;16.09;87.03;100939.09;5104297;28;20020;-70
2021/09/08 01:00:38;;;;;;;90.35;41.88;;;;;;;16.14;86.92;100938.97;5104172;28;20342;-70
2021/09/08 01:03:04;;;;;;;90.38;40.35;;;;;;;16.17;86.73;100938.91;5104213;28;20028;-70
2021/09/08 01:05:29;;;;;;;85.05;40.40;;;;;;;16.19;85.96;100937.13;5104072;28;20114;-70
2021/09/08 01:07:56;;;;;;;79.75;38.28;;;;;;;16.18;86.19;100927.56;5103851;28;20020;-70
2021/09/08 01:10:22;;;;;;;73.07;36.55;;;;;;;16.23;86.06;100937.00;5104286;28;20028;-69
2021/09/08 01:12:48;;;;;;;76.65;37.00;;;;;;;16.25;85.93;100934.34;5104096;28;20042;-70
2021/09/08 01:15:13;;;;;;;77.25;40.03;;;;;;;16.24;85.93;100932.66;5104091;28;20507;-71
2021/09/08 01:17:41;;;;;;;90.68;42.78;;;;;;;16.26;85.59;100932.59;5103826;28;20031;-70
2021/09/08 01:20:07;;;;;;;103.10;47.90;;;;;;;16.28;85.67;100943.91;5103951;28;20039;-70
2021/09/08 01:22:34;;;;;;;110.40;45.67;;;;;;;16.25;85.85;100936.09;5103834;28;20046;-69
2021/09/08 01:24:59;;;;;;;108.22;47.65;;;;;;;16.23;85.84;100934.41;5103350;28;20024;-70
2021/09/08 01:27:25;;;;;;;112.72;50.15;;;;;;;16.23;86.05;100944.00;5103838;28;20030;-69
2021/09/08 01:29:51;;;;;;;120.97;52.72;;;;;;;16.23;86.41;100934.41;5104229;28;20024;-70
2021/09/08 01:32:16;;;;;;;118.63;52.08;;;;;;;16.22;86.64;100937.06;5103973;28;20076;-69
2021/09/08 01:34:41;;;;;;;135.02;52.97;;;;;;;16.23;86.57;100929.16;5104030;28;20020;-69
2021/09/08 01:37:09;;;;;;;118.65;50.97;;;;;;;16.25;86.37;100929.13;5104008;28;20236;-68
2021/09/08 01:39:34;;;;;;;129.52;52.30;;;;;;;16.26;86.41;100930.88;5103760;28;20046;-69
2021/09/08 01:42:00;;;;;;;120.82;53.58;;;;;;;16.23;86.51;100931.78;5103600;28;20016;-69
2021/09/08 01:44:25;;;;;;;128.38;51.60;;;;;;;16.25;86.67;100929.13;5103692;28;20020;-69
2021/09/08 01:46:53;;;;;;;110.18;50.33;;;;;;;16.20;86.41;100925.75;5103425;28;20028;-69
2021/09/08 01:49:19;;;;;;;117.43;49.38;;;;;;;16.25;86.13;100936.09;5104375;28;20024;-69
2021/09/08 01:51:45;;;;;;;116.90;51.78;;;;;;;16.23;86.15;100931.78;5103457;28;20053;-69
2021/09/08 01:54:11;;;;;;;118.82;51.88;;;;;;;16.25;86.01;100934.34;5103810;28;20052;-70
2021/09/08 01:56:37;;;;;;;106.45;49.97;;;;;;;16.26;85.95;100933.47;5103585;28;20031;-71
2021/09/08 01:59:02;;;;;;;108.72;47.55;;;;;;;16.22;86.02;100923.94;5103879;28;20058;-69
2021/09/08 02:01:27;;;;;;;112.53;45.97;;;;;;;16.23;85.68;100931.78;5103179;28;20099;-69
2021/09/08 02:03:53;;;;;;;108.00;48.58;;;;;;;16.19;85.92;100924.03;5103531;28;20090;-69
2021/09/08 02:06:20;;;;;;;101.40;45.20;;;;;;;16.21;85.80;100932.72;5103197;28;20020;-69
2021/09/08 02:08:45;;;;;;;96.80;47.40;;;;;;;16.18;85.73;100925.78;5103549;28;20027;-69
2021/09/08 02:11:11;;;;;;;105.32;46.17;;;;;;;16.18;85.60;100933.63;5103482;28;20391;-70
2021/09/08 02:13:36;;;;;;;93.63;44.05;;;;;;;16.18;85.82;100922.31;5085087;28;20062;-69
2021/09/08 02:16:02;;;;;;;103.13;46.38;;;;;;;16.17;85.58;100926.69;5103402;28;20034;-69
2021/09/08 02:18:27;;;;;;;111.72;44.53;;;;;;;16.16;85.83;100917.13;5103601;28;20028;-69
2021/09/08 02:20:52;;;;;;;92.68;43.58;;;;;;;16.18;85.48;100922.31;5103050;28;20051;-70
2021/09/08 02:23:17;;;;;;;99.38;41.40;;;;;;;16.17;85.77;100923.19;5103195;28;20020;-70
2021/09/08 02:25:43;;;;;;;102.10;43.55;;;;;;;16.15;85.84;100914.53;5085131;28;20054;-69
2021/09/08 02:28:08;;;;;;;90.28;42.30;;;;;;;16.17;85.88;100917.94;5103208;28;20043;-70
2021/09/08 02:30:33;;;;;;;95.45;43.63;;;;;;;16.16;85.42;100913.63;5103253;28;20020;-70
2021/09/08 02:32:59;;;;;;;80.30;40.42;;;;;;;16.19;85.67;100910.94;5103167;28;20103;-70
2021/09/08 02:35:24;;;;;;;85.88;42.97;;;;;;;16.18;85.66;100910.06;5103908;28;20123;-70
2021/09/08 02:37:49;;;;;;;88.47;42.38;;;;;;;16.20;85.29;100912.63;5106496;28;20292;-69
2021/09/08 02:40:15;;;;;;;88.10;38.45;;;;;;;16.16;85.18;100888.31;5106867;28;20048;-69
2021/09/08 02:42:40;;;;;;;74.97;38.53;;;;;;;16.24;85.10;100903.84;5106645;28;20020;-70
2021/09/08 02:45:06;;;;;;;80.95;37.38;;;;;;;16.17;85.08;100887.41;5106570;28;20047;-70
2021/09/08 02:47:31;;;;;;;76.97;36.65;;;;;;;16.25;84.84;100908.16;5106618;28;20024;-69
2021/09/08 02:49:57;;;;;;;75.15;36.97;;;;;;;16.27;84.86;100901.13;5088321;28;20070;-69
2021/09/08 02:52:22;;;;;;;64.25;31.65;;;;;;;16.25;84.84;100909.91;5106542;28;20544;-69
2021/09/08 02:54:47;;;;;;;69.55;35.22;;;;;;;16.27;84.58;100895.91;5106974;28;20026;-69
2021/09/08 02:57:13;;;;;;;71.18;35.50;;;;;;;16.28;84.65;100894.97;5106255;28;20348;-69
2021/09/08 02:59:38;;;;;;;71.03;34.67;;;;;;;16.28;84.38;100892.38;5106208;28;20035;-69
2021/09/08 03:02:03;;;;;;;67.60;35.33;;;;;;;16.28;84.28;100894.97;5106126;28;20020;-69
2021/09/08 03:04:29;;;;;;;75.15;38.65;;;;;;;16.24;84.30;100882.88;5106239;28;20020;-69
2021/09/08 03:06:56;;;;;;;66.63;35.22;;;;;;;16.33;84.02;100898.34;5105974;28;20459;-70
2021/09/08 03:09:21;;;;;;;64.15;34.03;;;;;;;16.34;84.33;100909.72;5106259;28;20035;-69
2021/09/08 03:11:47;;;;;;;64.75;32.10;;;;;;;16.32;84.01;100898.41;5105975;28;20245;-69
2021/09/08 03:14:12;;;;;;;60.65;29.27;;;;;;;16.32;83.81;100904.50;5106140;28;20545;-69
2021/09/08 03:16:37;;;;;;;55.78;31.35;;;;;;;16.35;83.70;100898.31;5106078;28;20028;-70
2021/09/08 03:19:03;;;;;;;62.03;33.90;;;;;;;16.37;83.71;100898.28;5105916;28;20031;-70
2021/09/08 03:21:28;;;;;;;59.65;33.63;;;;;;;16.39;83.87;100897.34;5105459;28;20081;-70
2021/09/08 03:23:53;;;;;;;60.03;30.77;;;;;;;16.42;83.56;100896.41;5105806;28;20036;-70
2021/09/08 03:26:19;;;;;;;55.80;31.02;;;;;;;16.44;83.42;100890.22;5106075;28;20024;-69
2021/09/08 03:28:44;;;;;;;57.35;28.25;;;;;;;16.45;83.47;100886.69;5106025;28;20120;-69
2021/09/08 03:31:09;;;;;;;56.72;28.42;;;;;;;16.43;83.32;100882.41;5105961;28;20032;-70
2021/09/08 03:33:35;;;;;;;64.93;32.92;;;;;;;16.42;83.38;100893.78;5105496;28;20520;-69
2021/09/08 03:36:00;;;;;;;59.35;32.58;;;;;;;16.43;83.44;100892.88;5105408;28;20020;-70
2021/09/08 03:38:26;;;;;;;61.60;34.72;;;;;;;16.43;83.31;100888.53;5105580;28;20031;-70
2021/09/08 03:40:52;;;;;;;65.15;32.55;;;;;;;16.43;83.08;100883.28;5105475;28;20035;-70
2021/09/08 03:43:17;;;;;;;63.38;32.67;;;;;;;16.44;83.19;100885.00;5105788;28;20032;-70
2021/09/08 03:45:43;;;;;;;58.45;32.83;;;;;;;16.46;82.95;100883.19;5105400;28;20034;-70
2021/09/08 03:48:08;;;;;;;64.00;33.88;;;;;;;16.48;83.07;100885.78;5104900;28;20035;-70
2021/09/08 03:50:33;;;;;;;53.05;30.15;;;;;;;16.47;82.95;100878.78;5105456;28;20020;-69
2021/09/08 03:52:59;;;;;;;62.40;34.40;;;;;;;16.50;82.86;100877.88;5104982;28;20031;-70
2021/09/08 03:55:24;;;;;;;61.92;34.22;;;;;;;16.48;83.24;100878.75;5105188;28;20487;-70
2021/09/08 03:57:49;;;;;;;66.70;35.78;;;;;;;16.50;82.92;100880.50;5105125;28;20023;-70
2021/09/08 04:00:15;;;;;;;62.90;34.92;;;;;;;16.49;82.96;100871.75;5104876;28;20031;-68
2021/09/08 04:02:41;;;;;;;63.78;34.70;;;;;;;16.48;82.81;100867.44;5104912;28;20050;-68
2021/09/08 04:05:07;;;;;;;65.10;33.92;;;;;;;16.50;83.10;100867.41;5086675;28;20023;-68
2021/09/08 04:07:32;;;;;;;66.75;35.15;;;;;;;16.48;82.77;100863.03;5104885;28;20024;-68
2021/09/08 04:09:58;;;;;;;63.35;34.05;;;;;;;16.52;83.02;100866.44;5104856;28;20028;-69
2021/09/08 04:12:23;;;;;;;70.15;35.78;;;;;;;16.47;82.76;100860.44;5104744;28;20095;-69
2021/09/08 04:14:48;;;;;;;65.07;35.38;;;;;;;16.50;82.92;100863.03;5105225;28;20020;-69
2021/09/08 04:17:14;;;;;;;64.57;35.47;;;;;;;16.48;82.77;100863.03;5104940;28;20088;-69
2021/09/08 04:19:40;;;;;;;67.05;34.78;;;;;;;16.48;83.11;100864.81;5104728;28;20054;-69
2021/09/08 04:22:05;;;;;;;66.93;33.45;;;;;;;16.47;82.95;100861.31;5104438;28;20074;-68
2021/09/08 04:24:30;;;;;;;71.35;37.38;;;;;;;16.47;82.86;100858.69;5104619;28;20027;-69
2021/09/08 04:26:56;;;;;;;70.72;38.20;;;;;;;16.49;82.84;100863.91;5086139;28;20032;-70
2021/09/08 04:29:21;;;;;;;64.78;34.85;;;;;;;16.46;83.04;100856.13;5104650;28;20024;-69
2021/09/08 04:31:47;;;;;;;76.97;35.55;;;;;;;16.45;82.90;100859.66;5104495;28;20229;-70
2021/09/08 04:34:12;;;;;;;65.85;35.63;;;;;;;16.43;83.00;100843.97;5104867;28;20020;-69
2021/09/08 04:36:38;;;;;;;61.53;34.40;;;;;;;16.49;82.73;100850.81;5104448;28;20051;-70
2021/09/08 04:39:03;;;;;;;68.38;35.33;;;;;;;16.48;82.81;100851.72;5104520;28;20030;-66
2021/09/08 04:41:29;;;;;;;66.93;35.67;;;;;;;16.50;82.85;100852.53;5104703;28;20081;-73
2021/09/08 04:43:54;;;;;;;66.28;36.35;;;;;;;16.50;83.09;100855.16;5104762;28;20487;-73
2021/09/08 04:46:20;;;;;;;66.45;34.85;;;;;;;16.44;82.69;100843.06;5104682;28;20463;-72
2021/09/08 04:48:45;;;;;;;66.20;34.97;;;;;;;16.47;82.89;100848.22;5105018;28;20028;-70
2021/09/08 04:51:10;;;;;;;71.40;36.60;;;;;;;16.48;82.88;100849.09;5104603;28;20541;-68
2021/09/08 04:53:36;;;;;;;65.72;36.97;;;;;;;16.46;83.02;100846.50;5104822;28;20035;-66
2021/09/08 04:56:01;;;;;;;69.78;37.30;;;;;;;16.48;82.97;100838.59;5104613;28;20020;-67
2021/09/08 04:58:27;;;;;;;67.97;35.13;;;;;;;16.49;82.80;100840.31;5104157;28;20663;-67
2021/09/08 05:00:52;;;;;;;74.07;38.53;;;;;;;16.48;82.60;100844.69;5104083;28;20028;-66
2021/09/08 05:03:18;;;;;;;74.70;38.72;;;;;;;16.50;83.05;100844.69;5104565;28;20039;-67
2021/09/08 05:05:43;;;;;;;74.10;38.60;;;;;;;16.46;82.96;100841.28;5104435;28;20032;-66
2021/09/08 05:08:08;;;;;;;73.80;37.72;;;;;;;16.48;82.99;100847.31;5104349;28;20138;-66
2021/09/08 05:10:34;;;;;;;76.72;37.78;;;;;;;16.43;83.25;100841.34;5104456;28;20020;-67
2021/09/08 05:12:59;;;;;;;76.32;39.80;;;;;;;16.44;83.35;100852.66;5104638;28;20061;-68
2021/09/08 05:15:25;;;;;;;65.90;35.50;;;;;;;16.46;83.33;100848.25;5104735;28;20124;-67
2021/09/08 05:17:50;;;;;;;79.40;42.22;;;;;;;16.45;83.58;100834.28;5104144;28;20468;-67
2021/09/08 05:20:16;;;;;;;76.30;37.92;;;;;;;16.50;83.49;100836.81;5104001;28;20044;-64
2021/09/08 05:22:41;;;;;;;76.78;38.83;;;;;;;16.55;83.64;100842.78;5104047;28;20028;-69
2021/09/08 05:25:07;;;;;;;73.45;35.50;;;;;;;16.56;83.40;100841.03;5104395;28;20092;-69
2021/09/08 05:27:32;;;;;;;72.53;37.85;;;;;;;16.59;83.40;100843.56;5104193;28;20016;-69
2021/09/08 05:29:58;;;;;;;77.20;35.78;;;;;;;16.58;83.66;100847.09;5104009;28;20043;-69
2021/09/08 05:32:26;;;;;;;74.22;36.05;;;;;;;16.53;84.15;100836.72;5104389;28;20027;-69
2021/09/08 05:34:53;;;;;;;80.35;39.15;;;;;;;16.56;83.88;100834.03;5104338;28;20169;-70
2021/09/08 05:37:18;;;;;;;65.97;31.00;;;;;;;16.56;83.94;100838.41;5085861;28;20507;-69
2021/09/08 05:39:43;;;;;;;70.82;34.20;;;;;;;16.54;83.82;100832.31;5103963;28;20126;-69
2021/09/08 05:42:09;;;;;;;67.10;35.17;;;;;;;16.59;83.77;100840.94;5104274;28;20034;-69
2021/09/08 05:44:34;;;;;;;77.18;35.05;;;;;;;16.56;83.98;100839.28;5104207;28;20052;-69
2021/09/08 05:47:00;;;;;;;75.30;35.85;;;;;;;16.60;83.93;100845.28;5104009;28;20126;-69
2021/09/08 05:49:25;;;;;;;73.85;35.35;;;;;;;16.64;83.82;100840.81;5104130;28;20027;-69
2021/09/08 05:51:50;;;;;;;70.15;32.17;;;;;;;16.64;83.89;100843.44;5103865;28;20012;-69
2021/09/08 05:54:16;;;;;;;73.10;35.75;;;;;;;16.62;83.96;100850.47;5104114;28;20459;-69
2021/09/08 05:56:41;;;;;;;68.65;34.40;;;;;;;16.64;83.83;100846.06;5104138;28;20047;-69
2021/09/08 05:59:06;;;;;;;71.80;31.55;;;;;;;16.66;83.94;100846.88;5085700;28;20501;-69
2021/09/08 06:01:31;;;;;;;62.50;32.78;;;;;;;16.65;84.32;100845.16;5103404;28;20020;-69
2021/09/08 06:03:58;;;;;;;67.82;32.33;;;;;;;16.65;84.38;100848.63;5103898;28;20036;-69
2021/09/08 06:06:23;;;;;;;64.57;33.17;;;;;;;16.70;84.31;100853.75;5103868;28;20043;-69
2021/09/08 06:08:49;;;;;;;68.40;33.88;;;;;;;16.76;84.16;100853.59;5104161;28;20027;-69
2021/09/08 06:11:14;;;;;;;67.47;34.08;;;;;;;16.82;84.11;100848.16;5106275;28;20028;-70
2021/09/08 06:13:40;;;;;;;60.38;31.95;;;;;;;16.88;83.98;100854.16;5108336;28;20028;-69
2021/09/08 06:16:05;;;;;;;65.10;31.42;;;;;;;16.87;84.12;100844.56;5107972;28;20042;-69
2021/09/08 06:18:30;;;;;;;58.53;29.40;;;;;;;16.92;83.88;100847.91;5108048;28;20034;-69
2021/09/08 06:20:56;;;;;;;66.25;33.13;;;;;;;16.92;84.10;100847.91;5107645;28;20428;-69
2021/09/08 06:23:22;;;;;;;64.85;33.45;;;;;;;16.95;84.10;100839.94;5107521;28;20348;-68
2021/09/08 06:25:47;;;;;;;66.50;31.23;;;;;;;16.92;83.95;100832.16;5107769;28;20028;-68
2021/09/08 06:28:13;;;;;;;57.97;28.38;;;;;;;16.96;84.06;100834.66;5107311;28;20040;-70
2021/09/08 06:30:38;;;;;;;66.80;29.17;;;;;;;16.98;83.96;100839.91;5107552;28;20083;-71
2021/09/08 06:33:04;;;;;;;61.53;31.25;;;;;;;17.04;83.80;100842.34;5107423;28;20028;-69
2021/09/08 06:35:29;;;;;;;63.67;30.95;;;;;;;17.05;83.62;100833.56;5107477;28;20020;-70
2021/09/08 06:37:55;;;;;;;63.53;31.45;;;;;;;17.14;83.27;100842.09;5107080;28;20083;-69
2021/09/08 06:40:20;;;;;;;58.25;29.70;;;;;;;17.14;83.40;100836.84;5089374;28;20069;-70
2021/09/08 06:42:46;;;;;;;58.95;30.50;;;;;;;17.17;83.29;100837.59;5107421;28;20043;-69
2021/09/08 06:45:11;;;;;;;62.83;28.38;;;;;;;17.23;83.27;100836.59;5107242;28;20055;-70
2021/09/08 06:47:37;;;;;;;51.50;23.65;;;;;;;17.32;83.04;100824.94;5107291;28;20031;-71
2021/09/08 06:50:03;;;;;;;48.78;27.77;;;;;;;17.37;83.19;100827.41;5107338;28;20020;-71
2021/09/08 06:52:29;;;;;;;48.53;25.17;;;;;;;17.41;83.41;100827.28;5107255;28;20031;-71
2021/09/08 06:54:55;;;;;;;45.72;25.20;;;;;;;17.50;83.02;100836.66;5088625;28;20020;-71
2021/09/08 06:57:20;;;;;;;46.42;23.20;;;;;;;17.59;82.54;100832.88;5088706;28;20087;-70
2021/09/08 06:59:45;;;;;;;44.70;24.10;;;;;;;17.69;82.32;100833.44;5107295;28;20024;-71
2021/09/08 07:02:11;;;;;;;38.90;22.20;;;;;;;17.82;82.28;100833.91;5107138;28;20077;-70
2021/09/08 07:04:37;;;;;;;35.13;21.45;;;;;;;17.95;81.96;100829.13;5107015;28;20027;-70
2021/09/08 07:07:03;;;;;;;30.73;20.00;;;;;;;18.08;81.75;100824.34;5106932;28;20087;-70
2021/09/08 07:09:29;;;;;;;32.35;18.15;;;;;;;18.27;81.52;100832.50;5107392;28;20595;-70
2021/09/08 07:11:55;;;;;;;28.73;16.08;;;;;;;18.70;81.03;100835.41;5107071;28;20015;-69
2021/09/08 07:14:20;;;;;;;26.13;15.90;;;;;;;19.15;78.40;100829.44;5106950;28;20028;-68
2021/09/08 07:16:46;;;;;;;24.45;14.50;;;;;;;19.41;77.18;100819.69;5106770;28;20052;-68
2021/09/08 07:19:11;;;;;;;20.55;12.43;;;;;;;19.47;74.61;100822.06;5107013;28;20031;-70
2021/09/08 07:21:36;;;;;;;19.90;12.75;;;;;;;19.55;75.02;100822.59;5105963;28;20036;-69
2021/09/08 07:24:02;;;;;;;19.52;12.75;;;;;;;19.60;74.83;100821.59;5087868;28;20024;-70
2021/09/08 07:26:32;;;;;;;20.15;11.98;;;;;;;19.68;74.28;100822.97;5106626;28;20350;-69
2021/09/08 07:29:05;;;;;;;18.77;12.57;;;;;;;19.84;73.69;100813.59;5090068;28;20111;-69
2021/09/08 07:31:30;;;;;;;18.92;12.48;;;;;;;19.91;71.74;100815.06;5086385;28;20051;-70
2021/09/08 07:33:57;;;;;;;17.25;12.05;;;;;;;19.83;71.26;100820.66;5086156;28;20048;-70
2021/09/08 07:36:22;;;;;;;18.25;12.50;;;;;;;19.87;72.10;100819.59;5085834;28;20111;-70
2021/09/08 07:38:49;;;;;;;21.83;12.38;;;;;;;19.98;71.95;100824.44;5086078;28;20138;-69
2021/09/08 07:41:14;;;;;;;18.60;10.50;;;;;;;20.04;71.41;100821.56;5086039;28;20028;-70
2021/09/08 07:43:40;;;;;;;15.55;9.85;;;;;;;20.17;70.80;100826.31;5085984;28;20035;-70
2021/09/08 07:46:05;;;;;;;14.85;8.82;;;;;;;20.21;70.57;100829.69;5085927;28;20116;-70
2021/09/08 07:48:30;;;;;;;15.18;9.18;;;;;;;20.18;70.08;100820.13;5067707;28;20016;-69
2021/09/08 07:50:56;;;;;;;14.07;8.80;;;;;;;20.26;69.83;100827.69;5085870;28;20024;-69
2021/09/08 07:53:21;;;;;;;11.80;7.72;;;;;;;20.37;69.13;100824.59;5085642;28;20032;-70
2021/09/08 07:55:47;;;;;;;14.20;7.82;;;;;;;20.42;68.83;100828.78;5085524;28;20029;-68
2021/09/08 07:58:12;;;;;;;11.82;7.82;;;;;;;20.47;68.65;100828.56;5085349;28;20054;-69
2021/09/08 08:00:38;;;;;;;11.77;7.78;;;;;;;20.58;68.26;100829.88;5085515;28;20021;-70
2021/09/08 08:03:04;;;;;;;12.35;7.05;;;;;;;20.74;67.47;100820.38;5085631;28;20027;-69
2021/09/08 08:05:31;;;;;;;12.70;6.38;;;;;;;20.68;66.55;100818.88;5085710;28;20025;-69
2021/09/08 08:07:56;;;;;;;10.63;4.93;;;;;;;20.58;66.68;100833.38;5067218;28;20021;-69
2021/09/08 08:10:22;;;;;;;10.18;7.03;;;;;;;20.65;67.31;100829.56;5085513;28;20016;-69
2021/09/08 08:12:47;;;;;;;8.90;5.32;;;;;;;20.99;66.67;100829.00;5085372;28;20021;-68
2021/09/08 08:15:14;;;;;;;7.80;5.55;;;;;;;21.27;65.54;100820.66;5067276;28;20038;-68
2021/09/08 08:17:40;;;;;;;8.80;6.22;;;;;;;21.60;64.22;100812.97;5085294;28;20020;-69
2021/09/08 08:20:08;;;;;;;8.27;5.80;;;;;;;21.69;63.80;100809.88;5085010;28;20101;-68
2021/09/08 08:22:35;;;;;;;9.00;5.45;;;;;;;21.75;63.55;100822.78;5084989;28;20601;-68
2021/09/08 08:25:01;;;;;;;8.95;5.88;;;;;;;21.78;62.78;100822.66;5085042;28;20035;-69
2021/09/08 08:27:26;;;;;;;10.18;5.82;;;;;;;21.67;62.11;100817.00;5084759;28;20056;-69
2021/09/08 08:29:52;;;;;;;8.90;5.90;;;;;;;21.74;62.79;100826.34;5085050;28;20032;-68
2021/09/08 08:32:17;;;;;;;10.55;5.25;;;;;;;22.07;62.78;100827.44;5084936;28;20458;-69
2021/09/08 08:34:43;;;;;;;8.57;5.22;;;;;;;22.47;61.24;100824.53;5084732;28;20115;-70
2021/09/08 08:37:08;;;;;;;8.00;4.93;;;;;;;22.72;60.33;100825.91;5084683;28;20016;-69
2021/09/08 08:39:34;;;;;;;7.55;4.95;;;;;;;22.93;60.20;100830.13;5084896;28;20039;-69
2021/09/08 08:41:59;;;;;;;8.65;5.57;;;;;;;23.16;58.78;100831.53;5084815;28;20020;-65
2021/09/08 08:44:25;;;;;;;7.88;5.65;;;;;;;23.20;58.66;100825.09;5084746;28;20533;-68
2021/09/08 08:46:52;;;;;;;9.05;5.82;;;;;;;23.10;58.08;100826.56;5066726;28;20024;-68
2021/09/08 08:49:20;;;;;;;8.27;4.90;;;;;;;23.02;58.60;100824.31;5084539;28;20020;-69
2021/09/08 08:51:49;;;;;;;7.13;4.45;;;;;;;22.95;58.78;100826.47;5084454;28;20028;-68
2021/09/08 08:54:14;;;;;;;9.98;4.57;;;;;;;22.94;58.31;100821.25;5084344;28;20033;-69
2021/09/08 08:56:40;;;;;;;6.88;4.55;;;;;;;22.79;57.58;100831.72;5084330;28;20016;-69
2021/09/08 08:59:05;;;;;;;6.30;5.10;;;;;;;22.38;58.75;100830.31;5084216;28;20025;-69
2021/09/08 09:01:32;;;;;;;7.28;4.70;;;;;;;22.15;58.98;100829.69;5084195;28;20060;-68
2021/09/08 09:04:09;;;;;;;7.60;5.38;;;;;;;21.79;59.74;100821.72;5084212;28;20024;-68
2021/09/08 09:06:38;;;;;;;8.38;5.32;;;;;;;21.63;60.78;100821.56;5084229;28;20029;-68
2021/09/08 09:09:14;;;;;;;8.02;5.07;;;;;;;21.52;61.16;100819.47;5084270;28;20024;-69
2021/09/08 09:11:41;;;;;;;8.23;5.07;;;;;;;21.42;61.31;100816.41;5084598;28;20012;-69
2021/09/08 09:14:08;;;;;;;9.77;5.05;;;;;;;21.36;61.28;100815.88;5084397;28;20073;-68
2021/09/08 09:16:35;;;;;;;9.13;4.53;;;;;;;21.18;61.87;100818.44;5084424;28;20067;-69
2021/09/08 09:19:02;;;;;;;7.60;5.18;;;;;;;21.02;62.48;100819.13;5084277;28;20017;-69
2021/09/08 09:21:28;;;;;;;9.15;4.57;;;;;;;20.87;62.99;100830.34;5083980;28;20044;-69
2021/09/08 09:23:56;;;;;;;7.03;4.88;;;;;;;20.81;63.37;100819.16;5084171;28;20032;-69
2021/09/08 09:26:21;;;;;;;6.90;5.05;;;;;;;20.79;63.59;100818.38;5084259;28;20388;-69
2021/09/08 09:28:47;;;;;;;9.77;5.30;;;;;;;20.63;63.76;100814.69;5083958;28;20476;-69
2021/09/08 09:31:21;;;;;;;9.32;6.00;;;;;;;20.62;64.08;100815.63;5084091;28;20035;-67
2021/09/08 09:33:52;;;;;;;8.73;5.30;;;;;;;20.64;64.05;100819.06;5084167;28;20024;-68
2021/09/08 09:36:27;;;;;;;16.45;6.85;;;;;;;20.74;63.97;100824.78;5083994;28;20052;-68
2021/09/08 09:38:54;;;;;;;9.80;4.88;;;;;;;20.69;63.95;100819.69;5083962;28;20107;-69
2021/09/08 09:41:25;;;;;;;8.95;5.22;;;;;;;20.73;64.32;100821.28;5083981;28;20025;-67
2021/09/08 09:43:50;;;;;;;9.60;5.75;;;;;;;20.76;64.08;100829.06;5083765;28;20024;-68
2021/09/08 09:46:16;;;;;;;11.18;6.32;;;;;;;20.66;64.07;100819.84;5065292;28;20357;-68
2021/09/08 09:48:42;;;;;;;12.18;6.43;;;;;;;20.67;64.16;100814.50;5065714;28;20490;-68
2021/09/08 09:51:12;;;;;;;8.85;5.60;;;;;;;20.68;64.62;100812.72;5083750;28;20051;-68
2021/09/08 09:53:39;;;;;;;8.55;5.00;;;;;;;20.65;64.58;100815.50;5065424;28;20028;-68
2021/09/08 09:56:05;;;;;;;8.77;5.25;;;;;;;20.62;64.76;100811.22;5083515;28;20084;-68
2021/09/08 09:58:30;;;;;;;7.63;5.05;;;;;;;20.69;64.95;100811.78;5083737;28;20032;-68
2021/09/08 10:00:56;;;;;;;11.13;5.05;;;;;;;20.76;64.43;100812.38;5083691;28;20489;-68
2021/09/08 10:03:22;;;;;;;7.70;5.07;;;;;;;21.09;64.36;100813.56;5083641;28;20023;-68
2021/09/08 10:05:48;;;;;;;8.90;5.07;;;;;;;22.09;62.58;100817.63;5083791;28;20179;-67
2021/09/08 10:08:24;;;;;;;8.65;4.78;;;;;;;23.08;59.87;100813.41;5083555;28;20104;-68
2021/09/08 10:10:51;;;;;;;7.72;5.30;;;;;;;23.67;57.92;100809.31;5083777;28;20032;-67
2021/09/08 10:13:37;;;;;;;10.77;6.07;;;;;;;24.05;55.99;100805.34;5083996;28;20070;-67
2021/09/08 10:16:03;;;;;;;8.55;6.13;;;;;;;24.01;55.40;100796.72;5083850;28;20044;-69
2021/09/08 10:18:30;;;;;;;9.73;5.57;;;;;;;23.65;55.82;100800.56;5083974;28;20170;-69
2021/09/08 10:21:05;;;;;;;8.43;5.72;;;;;;;23.25;56.12;100796.59;5083560;28;20575;-68
2021/09/08 10:23:38;;;;;;;11.00;6.43;;;;;;;23.10;56.74;100797.44;5083363;28;20429;-68
2021/09/08 10:26:18;;;;;;;10.15;5.65;;;;;;;23.06;56.26;100803.81;5083585;28;20032;-67
2021/09/08 10:28:46;;;;;;;10.75;6.53;;;;;;;23.07;56.38;100810.84;5083427;28;20036;-67
2021/09/08 10:31:13;;;;;;;9.60;6.03;;;;;;;22.73;56.77;100798.50;5083539;28;20020;-69
2021/09/08 10:33:41;;;;;;;10.68;6.80;;;;;;;22.51;57.33;100801.38;5083723;28;20009;-66
2021/09/08 10:36:10;;;;;;;10.32;6.88;;;;;;;22.84;57.74;100802.38;5083516;28;20029;-69
2021/09/08 10:38:35;;;;;;;8.20;6.35;;;;;;;23.22;56.45;100786.16;5083208;28;20032;-69
2021/09/08 10:41:06;;;;;;;9.52;6.78;;;;;;;23.42;55.54;100800.09;5083758;28;20024;-68
2021/09/08 10:43:37;;;;;;;10.88;6.30;;;;;;;23.54;55.41;100797.69;5083910;28;20056;-67
2021/09/08 10:46:04;;;;;;;9.75;7.03;;;;;;;23.37;55.26;100797.66;5084418;28;20028;-68
2021/09/08 10:48:36;;;;;;;10.13;7.13;;;;;;;23.28;55.52;100799.06;5083733;28;20016;-67
2021/09/08 10:51:03;;;;;;;10.70;8.07;;;;;;;23.20;55.63;100792.47;5083676;28;20088;-68
2021/09/08 10:53:30;;;;;;;13.88;8.52;;;;;;;23.01;55.54;100797.00;5083131;28;20262;-68
2021/09/08 10:55:55;;;;;;;16.15;9.15;;;;;;;23.16;55.87;100799.75;5083435;28;20073;-67
2021/09/08 10:58:21;;;;;;;11.73;8.73;;;;;;;23.20;55.63;100800.41;5085194;28;20063;-68
2021/09/08 11:00:49;;;;;;;15.00;8.77;;;;;;;23.27;55.54;100809.75;5086821;28;20031;-66
2021/09/08 11:03:15;;;;;;;11.65;7.07;;;;;;;23.45;55.21;100797.25;5068777;28;20035;-67
2021/09/08 11:06:07;;;;;;;11.85;7.55;;;;;;;23.37;54.49;100780.94;5086705;28;20020;-68
2021/09/08 11:08:33;;;;;;;11.18;7.80;;;;;;;23.10;55.19;100794.78;5085862;28;20120;-68